地図

経路データ

SID SEASON NUMBER BASIN SUBBASIN NAME ISO_TIME NATURE LAT LON WMO_WIND WMO_PRES WMO_AGENCY TRACK_TYPE DIST2LAND LANDFALL IFLAG USA_AGENCY USA_ATCF_ID USA_LAT USA_LON USA_RECORD USA_STATUS USA_WIND USA_PRES USA_SSHS USA_R34_NE USA_R34_SE USA_R34_SW USA_R34_NW USA_R50_NE USA_R50_SE USA_R50_SW USA_R50_NW USA_R64_NE USA_R64_SE USA_R64_SW USA_R64_NW USA_POCI USA_ROCI USA_RMW USA_EYE TOKYO_LAT TOKYO_LON TOKYO_GRADE TOKYO_WIND TOKYO_PRES TOKYO_R50_DIR TOKYO_R50_LONG TOKYO_R50_SHORT TOKYO_R30_DIR TOKYO_R30_LONG TOKYO_R30_SHORT TOKYO_LAND CMA_LAT CMA_LON CMA_CAT CMA_WIND CMA_PRES HKO_LAT HKO_LON HKO_CAT HKO_WIND HKO_PRES NEWDELHI_LAT NEWDELHI_LON NEWDELHI_GRADE NEWDELHI_WIND NEWDELHI_PRES NEWDELHI_CI NEWDELHI_DP NEWDELHI_POCI REUNION_LAT REUNION_LON REUNION_TYPE REUNION_WIND REUNION_PRES REUNION_TNUM REUNION_CI REUNION_RMW REUNION_R34_NE REUNION_R34_SE REUNION_R34_SW REUNION_R34_NW REUNION_R50_NE REUNION_R50_SE REUNION_R50_SW REUNION_R50_NW REUNION_R64_NE REUNION_R64_SE REUNION_R64_SW REUNION_R64_NW BOM_LAT BOM_LON BOM_TYPE BOM_WIND BOM_PRES BOM_TNUM BOM_CI BOM_RMW BOM_R34_NE BOM_R34_SE BOM_R34_SW BOM_R34_NW BOM_R50_NE BOM_R50_SE BOM_R50_SW BOM_R50_NW BOM_R64_NE BOM_R64_SE BOM_R64_SW BOM_R64_NW BOM_ROCI BOM_POCI BOM_EYE BOM_POS_METHOD BOM_PRES_METHOD NADI_LAT NADI_LON NADI_CAT NADI_WIND NADI_PRES WELLINGTON_LAT WELLINGTON_LON WELLINGTON_WIND WELLINGTON_PRES DS824_LAT DS824_LON DS824_STAGE DS824_WIND DS824_PRES TD9636_LAT TD9636_LON TD9636_STAGE TD9636_WIND TD9636_PRES TD9635_LAT TD9635_LON TD9635_WIND TD9635_PRES TD9635_ROCI NEUMANN_LAT NEUMANN_LON NEUMANN_CLASS NEUMANN_WIND NEUMANN_PRES MLC_LAT MLC_LON MLC_CLASS MLC_WIND MLC_PRES USA_GUST BOM_GUST BOM_GUST_PER REUNION_GUST REUNION_GUST_PER USA_SEAHGT USA_SEARAD_NE USA_SEARAD_SE USA_SEARAD_SW USA_SEARAD_NW STORM_SPEED STORM_DIR
1998173N08266 1998 34 EP MM BLAS 1998-06-22 00:00:00 TS 8.00000 -94.5000 25 1007 hurdat_epa main 747 724 O_____________ hurdat_epa EP031998 8.00000 -94.5000 TD 25 1007 -1 11 323
1998173N08266 1998 34 EP MM BLAS 1998-06-22 03:00:00 TS 8.45756 -94.8424 main 715 699 P_____________ EP031998 8.45756 -94.8424 TD 27 1006 -1 11 322
1998173N08266 1998 34 EP MM BLAS 1998-06-22 06:00:00 TS 8.90000 -95.2000 30 1006 hurdat_epa main 699 680 O_____________ hurdat_epa EP031998 8.90000 -95.2000 TD 30 1006 -1 11 319
1998173N08266 1998 34 EP MM BLAS 1998-06-22 09:00:00 TS 9.31495 -95.5851 main 687 663 P_____________ EP031998 9.31495 -95.5851 TD 32 1005 -1 11 315
1998173N08266 1998 34 EP MM BLAS 1998-06-22 12:00:00 TS 9.70000 -96.0000 35 1005 hurdat_epa main 663 616 O_____________ hurdat_epa EP031998 9.70000 -96.0000 TS 35 1005 0 11 312
1998173N08266 1998 34 EP MM BLAS 1998-06-22 15:00:00 TS 10.0725 -96.4425 main 616 582 P_____________ EP031998 10.0725 -96.4425 TS 40 1002 0 11 308
1998173N08266 1998 34 EP MM BLAS 1998-06-22 18:00:00 TS 10.4000 -96.9000 45 1000 hurdat_epa main 583 553 O_____________ hurdat_epa EP031998 10.4000 -96.9000 TS 45 1000 0 11 304
1998173N08266 1998 34 EP MM BLAS 1998-06-22 21:00:00 TS 10.6799 -97.3426 main 553 539 P_____________ EP031998 10.6799 -97.3426 TS 47 998 0 10 299
1998173N08266 1998 34 EP MM BLAS 1998-06-23 00:00:00 TS 10.9000 -97.8000 50 997 hurdat_epa main 542 536 O_____________ hurdat_epa EP031998 10.9000 -97.8000 TS 50 997 0 10 292
1998173N08266 1998 34 EP MM BLAS 1998-06-23 03:00:00 TS 11.0575 -98.2927 main 536 536 P_____________ EP031998 11.0575 -98.2927 TS 52 995 0 10 287
1998173N08266 1998 34 EP MM BLAS 1998-06-23 06:00:00 TS 11.2000 -98.8000 55 994 hurdat_epa main 547 536 O_____________ hurdat_epa EP031998 11.2000 -98.8000 TS 55 994 0 10 288
1998173N08266 1998 34 EP MM BLAS 1998-06-23 09:00:00 TS 11.3773 -99.2852 main 539 533 P_____________ EP031998 11.3773 -99.2852 TS 57 992 0 11 292
1998173N08266 1998 34 EP MM BLAS 1998-06-23 12:00:00 TS 11.6000 -99.8000 60 991 hurdat_epa main 537 525 O_____________ hurdat_epa EP031998 11.6000 -99.8000 TS 60 991 0 12 295
1998173N08266 1998 34 EP MM BLAS 1998-06-23 15:00:00 TS 11.8850 -100.385 main 529 520 P_____________ EP031998 11.8850 -100.385 TS 62 989 0 13 297
1998173N08266 1998 34 EP MM BLAS 1998-06-23 18:00:00 TS 12.2000 -101.000 65 987 hurdat_epa main 522 508 O_____________ hurdat_epa EP031998 12.2000 -101.000 HU 65 987 1 14 298
1998173N08266 1998 34 EP MM BLAS 1998-06-23 21:00:00 TS 12.5074 -101.608 main 512 506 P_____________ EP031998 12.5074 -101.608 HU 72 982 1 13 297
1998173N08266 1998 34 EP MM BLAS 1998-06-24 00:00:00 TS 12.8000 -102.200 80 977 hurdat_epa main 512 507 O_____________ hurdat_epa EP031998 12.8000 -102.200 HU 80 977 1 13 296
1998173N08266 1998 34 EP MM BLAS 1998-06-24 03:00:00 TS 13.0574 -102.773 main 504 501 P_____________ EP031998 13.0574 -102.773 HU 85 973 2 12 295
1998173N08266 1998 34 EP MM BLAS 1998-06-24 06:00:00 TS 13.3000 -103.300 90 970 hurdat_epa main 506 501 O_____________ hurdat_epa EP031998 13.3000 -103.300 HU 90 970 2 11 297
1998173N08266 1998 34 EP MM BLAS 1998-06-24 09:00:00 TS 13.5498 -103.765 main 514 496 P_____________ EP031998 13.5498 -103.765 HU 95 965 2 10 300
1998173N08266 1998 34 EP MM BLAS 1998-06-24 12:00:00 TS 13.8000 -104.200 100 960 hurdat_epa main 500 489 O_____________ hurdat_epa EP031998 13.8000 -104.200 HU 100 960 3 10 300
1998173N08266 1998 34 EP MM BLAS 1998-06-24 15:00:00 TS 14.0499 -104.650 main 496 475 P_____________ EP031998 14.0499 -104.650 HU 102 958 3 10 300
1998173N08266 1998 34 EP MM BLAS 1998-06-24 18:00:00 TS 14.3000 -105.100 105 956 hurdat_epa main 479 471 O_____________ hurdat_epa EP031998 14.3000 -105.100 HU 105 956 3 10 300
1998173N08266 1998 34 EP MM BLAS 1998-06-24 21:00:00 TS 14.5500 -105.558 main 480 467 P_____________ EP031998 14.5500 -105.558 HU 110 952 3 10 300
1998173N08266 1998 34 EP MM BLAS 1998-06-25 00:00:00 TS 14.8000 -106.000 115 948 hurdat_epa main 473 468 O_____________ hurdat_epa EP031998 14.8000 -106.000 HU 115 948 4 10 302
1998173N08266 1998 34 EP MM BLAS 1998-06-25 03:00:00 TS 15.0498 -106.400 main 481 472 P_____________ EP031998 15.0498 -106.400 HU 117 945 4 9 303
1998173N08266 1998 34 EP MM BLAS 1998-06-25 06:00:00 TS 15.3000 -106.800 120 943 hurdat_epa main 485 480 O_____________ hurdat_epa EP031998 15.3000 -106.800 HU 120 943 4 10 302
1998173N08266 1998 34 EP MM BLAS 1998-06-25 09:00:00 TS 15.5500 -107.243 main 486 479 P_____________ EP031998 15.5500 -107.243 HU 117 944 4 10 300
1998173N08266 1998 34 EP MM BLAS 1998-06-25 12:00:00 TS 15.8000 -107.700 115 946 hurdat_epa main 489 487 O_____________ hurdat_epa EP031998 15.8000 -107.700 HU 115 946 4 10 300
1998173N08266 1998 34 EP MM BLAS 1998-06-25 15:00:00 TS 16.0499 -108.143 main 500 499 P_____________ EP031998 16.0499 -108.143 HU 115 947 4 10 300
1998173N08266 1998 34 EP MM BLAS 1998-06-25 18:00:00 TS 16.3000 -108.600 115 948 hurdat_epa main 515 515 O_____________ hurdat_epa EP031998 16.3000 -108.600 HU 115 948 4 10 299
1998173N08266 1998 34 EP MM BLAS 1998-06-25 21:00:00 TS 16.5649 -109.092 main 530 530 P_____________ EP031998 16.5649 -109.092 HU 112 950 3 11 298
1998173N08266 1998 34 EP MM BLAS 1998-06-26 00:00:00 TS 16.8000 -109.600 110 952 hurdat_epa main 558 558 O_____________ hurdat_epa EP031998 16.8000 -109.600 HU 110 952 3 10 293
1998173N08266 1998 34 EP MM BLAS 1998-06-26 03:00:00 TS 16.9723 -110.093 main 589 589 P_____________ EP031998 16.9723 -110.093 HU 107 954 3 10 287
1998173N08266 1998 34 EP MM BLAS 1998-06-26 06:00:00 TS 17.1000 -110.600 105 956 hurdat_epa main 627 627 O_____________ hurdat_epa EP031998 17.1000 -110.600 HU 105 956 3 10 283
1998173N08266 1998 34 EP MM BLAS 1998-06-26 09:00:00 TS 17.2074 -111.143 main 647 643 P_____________ EP031998 17.2074 -111.143 HU 102 958 3 11 281
1998173N08266 1998 34 EP MM BLAS 1998-06-26 12:00:00 TS 17.3000 -111.700 100 960 hurdat_epa main 650 649 O_____________ hurdat_epa EP031998 17.3000 -111.700 HU 100 960 3 11 281
1998173N08266 1998 34 EP MM BLAS 1998-06-26 15:00:00 TS 17.4073 -112.250 main 656 657 P_____________ EP031998 17.4073 -112.250 HU 95 965 2 11 281
1998173N08266 1998 34 EP MM BLAS 1998-06-26 18:00:00 TS 17.5000 -112.800 90 970 hurdat_epa main 670 670 O_____________ hurdat_epa EP031998 17.5000 -112.800 HU 90 970 2 11 278
1998173N08266 1998 34 EP MM BLAS 1998-06-26 21:00:00 TS 17.5573 -113.343 main 685 685 P_____________ EP031998 17.5573 -113.343 HU 87 972 2 11 275
1998173N08266 1998 34 EP MM BLAS 1998-06-27 00:00:00 TS 17.6000 -113.900 85 974 hurdat_epa main 718 718 O_____________ hurdat_epa EP031998 17.6000 -113.900 HU 85 974 2 11 275
1998173N08266 1998 34 EP MM BLAS 1998-06-27 03:00:00 TS 17.6499 -114.493 main 755 747 P_____________ EP031998 17.6499 -114.493 HU 82 975 1 11 275
1998173N08266 1998 34 EP MM BLAS 1998-06-27 06:00:00 TS 17.7000 -115.100 80 977 hurdat_epa main 787 787 O_____________ hurdat_epa EP031998 17.7000 -115.100 HU 80 977 1 11 275
1998173N08266 1998 34 EP MM BLAS 1998-06-27 09:00:00 TS 17.7497 -115.693 main 831 823 P_____________ EP031998 17.7497 -115.693 HU 77 978 1 11 275
1998173N08266 1998 34 EP MM BLAS 1998-06-27 12:00:00 TS 17.8000 -116.300 75 979 hurdat_epa main 869 869 O_____________ hurdat_epa EP031998 17.8000 -116.300 HU 75 979 1 12 275
1998173N08266 1998 34 EP MM BLAS 1998-06-27 15:00:00 TS 17.8574 -116.950 main 907 907 P_____________ EP031998 17.8574 -116.950 HU 75 980 1 12 275
1998173N08266 1998 34 EP MM BLAS 1998-06-27 18:00:00 TS 17.9000 -117.600 75 981 hurdat_epa main 949 949 O_____________ hurdat_epa EP031998 17.9000 -117.600 HU 75 981 1 12 273
1998173N08266 1998 34 EP MM BLAS 1998-06-27 21:00:00 TS 17.9148 -118.215 main 988 988 P_____________ EP031998 17.9148 -118.215 HU 72 982 1 11 270
1998173N08266 1998 34 EP MM BLAS 1998-06-28 00:00:00 TS 17.9000 -118.800 70 984 hurdat_epa main 1028 1028 O_____________ hurdat_epa EP031998 17.9000 -118.800 HU 70 984 1 11 266
1998173N08266 1998 34 EP MM BLAS 1998-06-28 03:00:00 TS 17.8423 -119.365 main 1079 1079 P_____________ EP031998 17.8423 -119.365 HU 67 985 1 11 265
1998173N08266 1998 34 EP MM BLAS 1998-06-28 06:00:00 TS 17.8000 -119.900 65 987 hurdat_epa main 1116 1116 O_____________ hurdat_epa EP031998 17.8000 -119.900 HU 65 987 1 10 270
1998173N08266 1998 34 EP MM BLAS 1998-06-28 09:00:00 TS 17.8348 -120.400 main 1154 1154 P_____________ EP031998 17.8348 -120.400 HU 62 988 0 10 276
1998173N08266 1998 34 EP MM BLAS 1998-06-28 12:00:00 TS 17.9000 -120.900 60 990 hurdat_epa main 1185 1185 O_____________ hurdat_epa EP031998 17.9000 -120.900 TS 60 990 0 10 277
1998173N08266 1998 34 EP MM BLAS 1998-06-28 15:00:00 TS 17.9500 -121.450 main 1233 1225 P_____________ EP031998 17.9500 -121.450 TS 60 991 0 11 275
1998173N08266 1998 34 EP MM BLAS 1998-06-28 18:00:00 TS 18.0000 -122.000 60 992 hurdat_epa main 1266 1266 O_____________ hurdat_epa EP031998 18.0000 -122.000 TS 60 992 0 10 276
1998173N08266 1998 34 EP MM BLAS 1998-06-28 21:00:00 TS 18.0497 -122.493 main 1308 1301 P_____________ EP031998 18.0497 -122.493 TS 57 993 0 10 276
1998173N08266 1998 34 EP MM BLAS 1998-06-29 00:00:00 TS 18.1000 -123.000 55 994 hurdat_epa main 1344 1344 O_____________ hurdat_epa EP031998 18.1000 -123.000 TS 55 994 0 10 276
1998173N08266 1998 34 EP MM BLAS 1998-06-29 03:00:00 TS 18.1574 -123.585 main 1378 1378 P_____________ EP031998 18.1574 -123.585 TS 50 997 0 11 275
1998173N08266 1998 34 EP MM BLAS 1998-06-29 06:00:00 TS 18.2000 -124.200 45 1000 hurdat_epa main 1418 1418 O_____________ hurdat_epa EP031998 18.2000 -124.200 TS 45 1000 0 12 273
1998173N08266 1998 34 EP MM BLAS 1998-06-29 09:00:00 TS 18.2098 -124.800 main 1459 1459 P_____________ EP031998 18.2073 -124.800 TS 42 1001 0 11 270
1998173N08266 1998 34 EP MM BLAS 1998-06-29 12:00:00 TS 18.2000 -125.400 40 1002 hurdat_epa main 1502 1502 O_____________ hurdat_epa EP031998 18.2000 -125.400 TS 40 1002 0 11 269
1998173N08266 1998 34 EP MM BLAS 1998-06-29 15:00:00 TS 18.1831 -125.998 main 1545 1545 P_____________ EP031998 18.1998 -126.000 TS 37 1003 0 11 268
1998173N08266 1998 34 EP MM BLAS 1998-06-29 18:00:00 TS 18.1667 -126.600 35 1005 hurdat_epa main 1591 1591 O_____________ hurdat_epa EP031998 18.2000 -126.600 TS 35 1005 0 12 269
1998173N08266 1998 34 EP MM BLAS 1998-06-29 21:00:00 TS 18.1614 -127.207 main 1637 1637 P_____________ EP031998 18.1997 -127.193 TS 32 1005 -1 12 270
1998173N08266 1998 34 EP MM BLAS 1998-06-30 00:00:00 TS 18.1667 -127.833 30 1006 hurdat_epa main 1684 1684 O_____________ hurdat_epa EP031998 18.2000 -127.800 TD 30 1006 -1 12 271
1998173N08266 1998 34 EP MM BLAS 1998-06-30 03:00:00 TS 18.1931 -128.487 main 1740 1740 P_____________ EP031998 18.2073 -128.435 TD 30 1006 -1 13 272
1998173N08266 1998 34 EP MM BLAS 1998-06-30 06:00:00 TS 18.2000 -129.155 30 1007 hurdat_epa main 1797 1797 O_____________ hurdat_epa EP031998 18.2000 -129.100 TD 30 1007 -1 13 268
1998173N08266 1998 34 EP MM BLAS 1998-06-30 09:00:00 TS 18.1525 -129.841 main 1847 1847 P_____________ EP031998 18.1574 -129.800 TD 27 1007 -1 13 265
1998173N08266 1998 34 EP MM BLAS 1998-06-30 12:00:00 TS 18.0857 -130.529 25 1008 hurdat_epa main 1912 1912 O_____________ hurdat_epa EP031998 18.1000 -130.500 TD 25 1008 -1 13 265
1998173N08266 1998 34 EP MM BLAS 1998-06-30 15:00:00 TS 18.0478 -131.163 main 1978 1978 P_____________ EP031998 18.0478 -131.163 TD 22 1008 -1 12 266
1998173N08266 1998 34 EP MM BLAS 1998-06-30 18:00:00 TS 18.0000 -131.800 20 1009 hurdat_epa main 2030 O_____________ hurdat_epa EP031998 18.0000 -131.800 TD 20 1009 -1 12 265

IBTrACS Databaseについて

本データベースは、米国NOAAが公開する1842年以降の世界の熱帯低気圧のベストトラックデータアーカイブInternational Best Track Archive for Climate Stewardship (IBTrACS)を、ウェブで閲覧しやすい形式に変換したものです。

最終更新日:2021-10-08